Terminal Aerodrome Forecast
Issued by NWS

Current Version | Previous Version | Text Only | Print | Product List | Glossary On
Versions: 1 2 3 4 5 6 7 8 9 10 11 12 13 14 15 16
000 FTUS41 KBOX 300536 TAFHYA TAF KHYA 300536Z 3006/3106 04005KT P6SM OVC004 FM300800 VRB03KT 1/4SM FG OVC008 FM301300 10004KT 1 1/2SM BR BKN015 FM301400 12005KT P6SM BKN015 FM301700 14007KT P6SM BKN250 FM302200 16007KT 4SM BR BKN250=

USA.gov is the U.S. government's official web portal to all federal, state and local government web resources and services.